createdAt,value
2023-07-08T00:01:56.530Z,9.25
2023-07-08T00:06:53.073Z,9.27
2023-07-08T00:11:49.555Z,9.33
2023-07-08T00:16:46.099Z,9.38
2023-07-08T00:22:56.727Z,9.33
2023-07-08T00:27:53.292Z,9.38
2023-07-08T00:32:49.970Z,9.4
2023-07-08T00:37:46.332Z,9.46
2023-07-08T00:43:57.022Z,9.46
2023-07-08T00:48:53.595Z,9.46
2023-07-08T00:53:50.190Z,9.44
2023-07-08T00:58:46.622Z,9.46
2023-07-08T01:04:57.310Z,9.47
2023-07-08T01:09:53.856Z,9.46
2023-07-08T01:14:50.317Z,9.48
2023-07-08T01:19:46.903Z,9.46
2023-07-08T01:25:57.581Z,9.49
2023-07-08T01:30:54.113Z,9.4
2023-07-08T01:35:50.709Z,9.42
2023-07-08T01:40:47.160Z,9.29
2023-07-08T01:46:57.816Z,9.32
2023-07-08T01:51:54.449Z,9.29
2023-07-08T01:56:50.872Z,9.22
2023-07-08T02:01:47.452Z,9.29
2023-07-08T02:07:58.108Z,9.26
2023-07-08T02:12:54.687Z,9.26
2023-07-08T02:17:51.156Z,9.19
2023-07-08T02:22:47.686Z,9.26
2023-07-08T02:27:44.242Z,9.26
2023-07-08T02:33:54.896Z,9.29
2023-07-08T02:38:51.420Z,9.24
2023-07-08T02:43:48.012Z,9.29
2023-07-08T02:48:44.629Z,9.32
2023-07-08T02:54:55.253Z,9.36
2023-07-08T02:56:09.306Z,9.35
2023-07-08T03:04:48.458Z,9.36
2023-07-08T03:09:44.873Z,9.39
2023-07-08T03:15:55.510Z,9.36
2023-07-08T03:20:52.078Z,9.29
2023-07-08T03:25:48.631Z,9.27
2023-07-08T03:36:55.782Z,9.15
2023-07-08T03:41:52.296Z,9.22
2023-07-08T03:46:49.064Z,9.15
2023-07-08T03:51:45.435Z,9.17
2023-07-08T03:57:56.066Z,9.27
2023-07-08T04:02:52.957Z,9.29
2023-07-08T04:07:49.095Z,9.26
2023-07-08T04:17:50.463Z,9.31
2023-07-08T04:22:46.855Z,9.33
2023-07-08T04:28:57.603Z,9.26
2023-07-08T04:33:54.215Z,9.26
2023-07-08T04:38:50.696Z,9.29
2023-07-08T04:43:47.301Z,9.33
2023-07-08T04:49:57.871Z,9.36
2023-07-08T04:54:54.346Z,9.42
2023-07-08T04:59:51.909Z,9.35
2023-07-08T05:04:47.903Z,9.37
2023-07-08T05:09:43.988Z,9.51
2023-07-08T05:15:54.737Z,9.44
2023-07-08T05:20:51.107Z,9.48
2023-07-08T05:25:47.685Z,9.62
2023-07-08T05:31:58.723Z,9.75
2023-07-08T05:36:54.924Z,9.81
2023-07-08T05:41:51.427Z,9.96
2023-07-08T05:46:48.096Z,10.03
2023-07-08T05:51:44.443Z,10.05
2023-07-08T05:57:55.163Z,10.13
2023-07-08T06:02:51.665Z,10.07
2023-07-08T06:07:48.253Z,10.11
2023-07-08T06:13:58.863Z,10.37
2023-07-08T06:18:55.456Z,10.32
2023-07-08T06:23:51.918Z,10.54
2023-07-08T06:28:48.456Z,10.62
2023-07-08T06:33:45.036Z,10.55
2023-07-08T06:39:56.063Z,10.74
2023-07-08T06:44:53.932Z,11.06
2023-07-08T06:49:48.874Z,11.06
2023-07-08T06:54:45.397Z,10.86
2023-07-08T07:00:56.006Z,10.91
2023-07-08T07:05:52.473Z,11.06
2023-07-08T07:10:49.076Z,11.07
2023-07-08T07:15:45.556Z,10.99
2023-07-08T07:21:56.220Z,11.21
2023-07-08T07:26:53.019Z,10.98
2023-07-08T07:31:49.389Z,10.82
2023-07-08T07:36:45.839Z,11
2023-07-08T07:42:56.498Z,10.95
2023-07-08T07:47:53.142Z,10.98
2023-07-08T07:52:49.546Z,11.29
2023-07-08T08:03:56.829Z,11.33
2023-07-08T08:08:53.356Z,11.25
2023-07-08T08:13:51.980Z,11.25
2023-07-08T08:18:46.368Z,10.85
2023-07-08T08:24:57.060Z,11.38
2023-07-08T08:29:53.663Z,11.15
2023-07-08T08:34:50.112Z,11.19
2023-07-08T08:39:46.682Z,11.11
2023-07-08T08:45:57.806Z,11.53
2023-07-08T08:50:53.924Z,11.24
2023-07-08T08:55:50.453Z,11.52
2023-07-08T09:00:48.007Z,11.59
2023-07-08T09:06:57.644Z,11.44
2023-07-08T09:11:54.166Z,11.33
2023-07-08T09:16:50.999Z,11.78
2023-07-08T09:21:47.172Z,11.98
2023-07-08T09:27:57.834Z,12.05
2023-07-08T09:32:54.470Z,12.15
2023-07-08T09:37:51.107Z,11.82
2023-07-08T09:42:47.683Z,12.44
2023-07-08T09:48:58.302Z,11.01
2023-07-08T09:53:54.752Z,10.94
2023-07-08T09:58:51.196Z,11.01
2023-07-08T10:03:47.725Z,11.19
2023-07-08T10:09:58.603Z,11.29
2023-07-08T10:14:54.983Z,11.24
2023-07-08T10:19:51.507Z,11.78
2023-07-08T10:24:49.080Z,11.1
2023-07-08T10:29:44.534Z,11.35
2023-07-08T10:35:55.214Z,11.31
2023-07-08T10:40:51.735Z,11.49
2023-07-08T10:45:48.324Z,11.15
2023-07-08T10:50:44.837Z,11.9
2023-07-08T10:56:55.603Z,11.41
2023-07-08T11:01:52.180Z,11.91
2023-07-08T11:06:48.542Z,11.98
2023-07-08T11:11:45.054Z,11.64
2023-07-08T11:17:55.709Z,11.71
2023-07-08T11:22:52.295Z,11.29
2023-07-08T11:27:48.833Z,11.78
2023-07-08T11:32:45.461Z,12.06
2023-07-08T11:38:55.974Z,12.35
2023-07-08T11:43:52.559Z,11.49
2023-07-08T11:48:49.142Z,12.47
2023-07-08T11:53:45.552Z,11.88
2023-07-08T11:59:56.230Z,12.52
2023-07-08T12:04:52.858Z,12.27
2023-07-08T12:09:49.417Z,12.87
2023-07-08T12:14:45.858Z,12.92
2023-07-08T12:20:56.519Z,12.8
2023-07-08T12:25:53.120Z,12.46
2023-07-08T12:30:49.706Z,12.37
2023-07-08T12:41:56.793Z,11.97
2023-07-08T12:46:53.355Z,12.32
2023-07-08T12:51:49.842Z,12.02
2023-07-08T12:56:46.447Z,12.39
2023-07-08T13:02:57.121Z,12.9
2023-07-08T13:07:53.668Z,12.87
2023-07-08T13:12:50.228Z,12.87
2023-07-08T13:17:46.716Z,12.63
2023-07-08T13:23:57.343Z,13.11
2023-07-08T13:28:53.924Z,13.1
2023-07-08T13:33:50.428Z,13
2023-07-08T13:38:46.969Z,13.27
2023-07-08T13:44:57.545Z,12.77
2023-07-08T13:49:54.148Z,13.03
2023-07-08T13:54:50.614Z,13.09
2023-07-08T13:59:47.213Z,13.02
2023-07-08T14:04:43.796Z,12.45
2023-07-08T14:10:54.485Z,13.47
2023-07-08T14:15:51.073Z,13.47
2023-07-08T14:20:47.501Z,13.47
2023-07-08T14:26:58.165Z,13.65
2023-07-08T14:31:54.815Z,13.47
2023-07-08T14:36:51.271Z,13.87
2023-07-08T14:41:47.761Z,13.8
2023-07-08T14:47:58.625Z,14.2
2023-07-08T14:52:55.717Z,14.27
2023-07-08T14:57:51.504Z,13.19
2023-07-08T15:02:48.111Z,14
2023-07-08T15:07:44.995Z,13.5
2023-07-08T15:13:55.469Z,14.13
2023-07-08T15:18:51.966Z,14.42
2023-07-08T15:23:48.294Z,14.2
2023-07-08T15:28:44.869Z,14
2023-07-08T15:34:56.638Z,13.91
2023-07-08T15:39:52.064Z,14
2023-07-08T15:44:48.565Z,14.02
2023-07-08T15:49:45.186Z,14.15
2023-07-08T15:55:55.736Z,12.9
2023-07-08T16:00:52.341Z,12.89
2023-07-08T16:05:48.879Z,13.28
2023-07-08T16:10:45.464Z,13.49
2023-07-08T16:16:56.061Z,14.27
2023-07-08T16:21:52.677Z,14.11
2023-07-08T16:26:49.116Z,13.6
2023-07-08T16:31:45.638Z,13.51
2023-07-08T16:37:56.524Z,13.08
2023-07-08T16:41:46.912Z,13
2023-07-08T16:47:57.643Z,13.05
2023-07-08T16:52:54.104Z,13.01
2023-07-08T16:57:50.635Z,13.18
2023-07-08T17:02:47.246Z,13.26
2023-07-08T17:08:57.832Z,13.3
2023-07-08T17:13:54.915Z,13.12
2023-07-08T17:18:50.905Z,13.05
2023-07-08T17:23:47.539Z,19.81
2023-07-08T17:29:58.132Z,21.9
2023-07-08T17:34:54.680Z,20.69
2023-07-08T17:39:51.155Z,20.69
2023-07-08T17:44:47.748Z,21.77
2023-07-08T17:49:44.723Z,21.77
2023-07-08T17:55:55.020Z,20.92
2023-07-08T18:00:52.089Z,21.16
2023-07-08T18:05:48.000Z,21.41
2023-07-08T18:10:44.514Z,21.65
2023-07-08T18:16:55.311Z,22.53
2023-07-08T18:21:51.842Z,21.9
2023-07-08T18:26:48.365Z,21.77
2023-07-08T18:31:44.943Z,21.9
2023-07-08T18:37:55.458Z,22.02
2023-07-08T18:47:48.676Z,21.9
2023-07-08T18:52:45.058Z,22.27
2023-07-08T18:58:55.748Z,22.42
2023-07-08T19:03:52.319Z,21.41
2023-07-08T19:08:49.279Z,20.9
2023-07-08T19:19:56.021Z,20.16
2023-07-08T19:24:52.746Z,20.24
2023-07-08T19:29:49.062Z,19.78
2023-07-08T19:34:45.583Z,19.24
2023-07-08T19:40:56.265Z,18.25
2023-07-08T19:45:52.874Z,18.65
2023-07-08T19:50:49.356Z,18.94
2023-07-08T19:55:45.968Z,19.3
2023-07-08T20:01:56.574Z,18.93
2023-07-08T20:06:53.079Z,19.01
2023-07-08T20:11:49.643Z,18.93
2023-07-08T20:16:46.143Z,19.45
2023-07-08T20:22:56.836Z,19.4
2023-07-08T20:27:53.880Z,19.51
2023-07-08T20:32:50.068Z,19.28
2023-07-08T20:43:57.082Z,18.28
2023-07-08T20:48:53.655Z,18.04
2023-07-08T20:53:50.125Z,17.81
2023-07-08T20:58:46.687Z,17.68
2023-07-08T21:04:57.362Z,17.42
2023-07-08T21:09:53.928Z,17.18
2023-07-08T21:14:50.437Z,17.19
2023-07-08T21:19:46.985Z,16.96
2023-07-08T21:25:57.594Z,16.83
2023-07-08T21:30:54.245Z,16.6
2023-07-08T21:35:50.651Z,16.15
2023-07-08T21:40:47.212Z,16.28
2023-07-08T21:46:57.897Z,16.5
2023-07-08T21:51:54.489Z,16.5
2023-07-08T21:56:50.921Z,16.56
2023-07-08T22:01:47.589Z,16.56
2023-07-08T22:07:58.142Z,16.51
2023-07-08T22:12:54.786Z,16.47
2023-07-08T22:17:51.354Z,16.13
2023-07-08T22:22:47.770Z,16.27
2023-07-08T22:27:44.283Z,16.1
2023-07-08T22:33:54.962Z,16.03
2023-07-08T22:38:51.460Z,16.16
2023-07-08T22:43:48.028Z,16.27
2023-07-08T22:48:44.571Z,16.45
2023-07-08T22:54:55.274Z,16.47
2023-07-08T22:59:51.810Z,16.59
2023-07-08T23:04:48.304Z,16.69
2023-07-08T23:09:44.844Z,16.67
2023-07-08T23:15:55.508Z,17.03
2023-07-08T23:20:52.073Z,17.01
2023-07-08T23:25:48.599Z,17.05
2023-07-08T23:30:45.107Z,17.31
2023-07-08T23:36:55.780Z,17.27
2023-07-08T23:41:52.328Z,16.93
2023-07-08T23:46:49.040Z,17.01
2023-07-08T23:57:56.032Z,17.05
